Time;durP1;ratioP1;P1;durP2;ratioP2;P2;SDS_P1;SDS_P2;PMS_P1;PMS_P2;Temp;Humidity;BMP_temperature;BMP_pressure;BME280_temperature;BME280_humidity;BME280_pressure;Samples;Min_cycle;Max_cycle;Signal;HPM_P1;HPM_P2
2023/07/17 00:00:36;;;;;;;5.00;2.30;;;;;;;18.67;54.37;101054.47;5039683;28;20402;-62
2023/07/17 00:03:04;;;;;;;4.72;2.55;;;;;;;18.63;54.46;101058.13;5039087;28;20040;-61
2023/07/17 00:05:29;;;;;;;5.28;3.00;;;;;;;18.56;55.13;101067.94;5035411;28;20065;-61
2023/07/17 00:07:55;;;;;;;6.78;2.97;;;;;;;18.55;55.10;101060.16;5044415;28;20041;-62
2023/07/17 00:10:20;;;;;;;6.38;2.90;;;;;;;18.58;55.05;101060.91;5036214;28;20079;-62
2023/07/17 00:12:45;;;;;;;5.80;2.97;;;;;;;18.62;55.17;101056.41;5048395;28;20050;-62
2023/07/17 00:15:12;;;;;;;6.78;2.85;;;;;;;18.66;55.13;101055.38;5048318;28;20093;-62
2023/07/17 00:17:38;;;;;;;6.53;2.95;;;;;;;18.69;55.42;101068.38;5049575;28;20069;-62
2023/07/17 00:20:09;;;;;;;5.93;2.78;;;;;;;18.71;55.53;101077.88;5046359;28;20118;-62
2023/07/17 00:22:35;;;;;;;4.72;2.70;;;;;;;18.75;55.43;101089.09;5050611;28;20070;-62
2023/07/17 00:25:00;;;;;;;8.52;2.78;;;;;;;18.77;55.72;101092.50;5043806;28;20033;-62
2023/07/17 00:27:26;;;;;;;5.93;2.92;;;;;;;18.74;56.29;101088.22;5041096;28;20068;-62
2023/07/17 00:29:52;;;;;;;5.50;2.50;;;;;;;18.71;56.82;101104.06;5051360;28;20040;-62
2023/07/17 00:32:17;;;;;;;5.05;2.90;;;;;;;18.73;56.92;101099.59;5044032;28;20083;-62
2023/07/17 00:34:43;;;;;;;6.40;3.25;;;;;;;18.75;57.08;101092.56;5048651;28;20036;-63
2023/07/17 00:37:08;;;;;;;8.73;3.67;;;;;;;18.79;56.48;101086.28;5051014;28;20824;-62
2023/07/17 00:39:34;;;;;;;5.57;2.38;;;;;;;18.84;55.89;101089.66;5041694;28;20041;-62
2023/07/17 00:42:01;;;;;;;8.57;3.00;;;;;;;18.89;54.98;101077.22;5052679;28;20047;-62
2023/07/17 00:44:27;;;;;;;6.38;2.88;;;;;;;18.94;54.98;101070.03;5043639;28;20040;-62
2023/07/17 00:46:54;;;;;;;7.57;3.53;;;;;;;19.00;54.47;101056.69;5046945;28;20063;-62
2023/07/17 00:49:22;;;;;;;7.18;3.13;;;;;;;19.04;54.08;101053.06;5045491;28;20509;-62
2023/07/17 00:51:47;;;;;;;5.30;3.20;;;;;;;19.07;54.00;101050.31;5041548;28;20659;-62
2023/07/17 00:54:14;;;;;;;5.85;3.17;;;;;;;19.10;53.70;101053.72;5047697;28;20035;-62
2023/07/17 00:56:41;;;;;;;6.15;2.60;;;;;;;19.10;53.85;101058.97;5041434;28;20611;-62
2023/07/17 00:59:07;;;;;;;6.65;2.83;;;;;;;19.12;53.96;101065.03;5047835;28;20036;-62
2023/07/17 01:01:33;;;;;;;5.85;3.00;;;;;;;19.13;53.96;101069.34;5052083;28;20090;-62
2023/07/17 01:04:04;;;;;;;7.00;3.05;;;;;;;19.13;54.30;101059.72;5045135;28;20043;-62
2023/07/17 01:06:30;;;;;;;6.90;2.83;;;;;;;19.15;54.39;101062.25;5041855;28;20025;-63
2023/07/17 01:08:57;;;;;;;6.95;3.25;;;;;;;19.16;54.75;101079.69;5043070;28;20629;-62
2023/07/17 01:11:22;;;;;;;7.13;3.50;;;;;;;19.21;54.95;101102.19;5034184;28;20044;-62
2023/07/17 01:13:49;;;;;;;8.50;3.55;;;;;;;19.22;54.73;101101.28;5046981;28;20047;-62
2023/07/17 01:16:14;;;;;;;7.68;3.28;;;;;;;19.23;54.88;101107.38;5045583;28;20856;-62
2023/07/17 01:18:40;;;;;;;6.35;4.00;;;;;;;19.22;55.61;101122.25;5044843;28;20037;-63
2023/07/17 01:21:08;;;;;;;8.48;3.42;;;;;;;19.19;56.45;101143.34;5035382;28;20034;-62
2023/07/17 01:23:34;;;;;;;6.78;3.08;;;;;;;19.15;57.14;101149.59;5039375;28;20600;-62
2023/07/17 01:25:59;;;;;;;7.53;3.78;;;;;;;19.11;57.58;101152.41;5049120;28;20035;-62
2023/07/17 01:28:25;;;;;;;8.23;3.45;;;;;;;19.07;58.92;101170.00;5050102;28;20033;-62
2023/07/17 01:30:51;;;;;;;5.88;2.88;;;;;;;19.02;59.65;101180.66;5045857;28;20041;-62
2023/07/17 01:33:16;;;;;;;6.43;2.80;;;;;;;19.00;60.23;101186.84;5049093;28;20065;-62
2023/07/17 01:35:42;;;;;;;7.22;2.88;;;;;;;18.98;60.78;101180.81;5043230;28;20095;-61
2023/07/17 01:38:08;;;;;;;4.45;2.22;;;;;;;18.96;61.19;101185.25;5043605;28;20037;-62
2023/07/17 01:40:33;;;;;;;6.35;2.97;;;;;;;18.93;61.66;101183.63;5040512;28;20491;-62
2023/07/17 01:42:59;;;;;;;9.13;2.78;;;;;;;18.92;61.61;101183.66;5047592;28;20029;-62
2023/07/17 01:45:24;;;;;;;4.85;2.55;;;;;;;18.90;61.92;101188.97;5041736;28;20111;-62
2023/07/17 01:47:49;;;;;;;6.03;2.75;;;;;;;18.89;62.35;101183.75;5044680;28;20775;-62
2023/07/17 01:50:15;;;;;;;8.18;2.80;;;;;;;18.83;63.10;101183.94;5042213;28;20043;-62
2023/07/17 01:52:40;;;;;;;3.92;2.47;;;;;;;18.75;63.21;101192.09;5042438;28;20044;-62
2023/07/17 01:55:06;;;;;;;5.10;2.47;;;;;;;18.69;63.97;101196.69;5047378;28;20029;-63
2023/07/17 01:57:32;;;;;;;5.72;2.88;;;;;;;18.63;64.16;101189.91;5042430;28;20785;-62
2023/07/17 01:59:57;;;;;;;4.38;2.30;;;;;;;18.57;64.51;101194.47;5042845;28;20037;-62
2023/07/17 02:02:23;;;;;;;8.32;2.92;;;;;;;18.55;65.15;101191.06;5042769;28;20042;-62
2023/07/17 02:04:48;;;;;;;5.45;2.47;;;;;;;18.50;65.49;101188.59;5052838;28;20034;-62
2023/07/17 02:07:14;;;;;;;8.38;3.05;;;;;;;18.47;65.92;101200.03;5044261;28;20033;-62
2023/07/17 02:09:39;;;;;;;6.00;2.92;;;;;;;18.42;66.10;101194.09;5037161;28;20049;-62
2023/07/17 02:12:05;;;;;;;9.75;3.15;;;;;;;18.35;66.66;101192.59;5044542;28;20132;-62
2023/07/17 02:14:30;;;;;;;4.70;2.70;;;;;;;18.31;66.76;101187.53;5044253;28;20040;-61
2023/07/17 02:16:55;;;;;;;6.95;2.90;;;;;;;18.30;67.13;101180.56;5044677;28;20390;-62
2023/07/17 02:19:21;;;;;;;6.68;3.42;;;;;;;18.30;67.17;101183.19;5043685;28;20083;-62
2023/07/17 02:21:46;;;;;;;6.63;3.33;;;;;;;18.33;67.37;101185.69;5048580;28;20124;-62
2023/07/17 02:24:12;;;;;;;6.25;3.08;;;;;;;18.35;67.52;101191.72;5047830;28;20498;-63
2023/07/17 02:26:37;;;;;;;5.30;2.80;;;;;;;18.34;67.58;101185.66;5041914;28;20049;-63
2023/07/17 02:29:03;;;;;;;5.38;2.92;;;;;;;18.32;67.73;101187.44;5043171;28;20040;-62
2023/07/17 02:31:28;;;;;;;5.72;3.40;;;;;;;18.25;67.86;101178.13;5054017;28;20119;-63
2023/07/17 02:33:55;;;;;;;6.53;3.03;;;;;;;18.17;68.37;101187.97;5051817;28;20039;-62
2023/07/17 02:36:20;;;;;;;5.10;2.85;;;;;;;18.12;68.85;101191.63;5039503;28;20033;-62
2023/07/17 02:38:46;;;;;;;6.50;2.90;;;;;;;18.01;69.32;101192.00;5042807;28;20044;-62
2023/07/17 02:41:12;;;;;;;5.57;3.03;;;;;;;17.95;69.67;101190.44;5044553;28;20033;-62
2023/07/17 02:43:38;;;;;;;4.80;3.10;;;;;;;17.87;70.13;101195.03;5051208;28;20492;-63
2023/07/17 02:46:03;;;;;;;6.53;3.88;;;;;;;17.83;70.23;101189.91;5044193;28;20047;-62
2023/07/17 02:48:28;;;;;;;4.22;2.70;;;;;;;17.77;70.69;101190.13;5045171;28;20028;-62
2023/07/17 02:50:54;;;;;;;4.82;2.90;;;;;;;17.71;70.84;101191.16;5047820;28;20034;-62
2023/07/17 02:53:20;;;;;;;6.47;3.28;;;;;;;17.67;71.13;101191.28;5040731;28;20031;-62
2023/07/17 02:55:45;;;;;;;7.82;3.80;;;;;;;17.63;71.55;101195.75;5039800;28;20501;-62
2023/07/17 02:58:15;;;;;;;5.40;3.22;;;;;;;17.60;71.29;101201.06;5041848;28;20044;-62
2023/07/17 03:00:41;;;;;;;6.60;3.45;;;;;;;17.56;71.83;101201.22;5033232;28;20109;-62
2023/07/17 03:03:07;;;;;;;5.50;3.00;;;;;;;17.47;72.21;101194.50;5048805;28;20040;-62
2023/07/17 03:05:34;;;;;;;7.07;3.05;;;;;;;17.46;72.24;101199.78;5035791;28;20041;-62
2023/07/17 03:08:00;;;;;;;5.80;3.22;;;;;;;17.40;72.20;101199.06;5032318;28;20021;-62
2023/07/17 03:10:26;;;;;;;6.85;3.75;;;;;;;17.33;72.36;101192.28;5034431;28;20040;-62
2023/07/17 03:12:52;;;;;;;7.82;3.03;;;;;;;17.29;72.51;101200.28;5040193;28;20028;-62
2023/07/17 03:15:17;;;;;;;8.30;3.63;;;;;;;17.24;72.93;101189.97;5044135;28;20045;-62
2023/07/17 03:17:42;;;;;;;10.00;3.55;;;;;;;17.22;72.96;101190.88;5046520;28;20029;-62
2023/07/17 03:20:11;;;;;;;5.07;3.10;;;;;;;17.22;72.98;101191.75;5039993;28;20039;-62
2023/07/17 03:22:37;;;;;;;9.02;3.55;;;;;;;17.21;72.88;101191.81;5041005;28;20123;-62
2023/07/17 03:25:06;;;;;;;6.05;3.13;;;;;;;17.20;72.91;101197.94;5040655;28;20061;-62
2023/07/17 03:27:32;;;;;;;6.32;3.30;;;;;;;17.18;72.92;101194.50;5042614;28;20036;-62
2023/07/17 03:29:58;;;;;;;5.90;3.47;;;;;;;17.15;73.12;101202.44;5039709;28;20103;-62
2023/07/17 03:32:23;;;;;;;5.10;3.40;;;;;;;17.13;73.43;101204.22;5041253;28;20494;-62
2023/07/17 03:34:48;;;;;;;6.80;3.28;;;;;;;17.09;73.51;101198.25;5042525;28;20040;-62
2023/07/17 03:37:14;;;;;;;6.43;4.13;;;;;;;17.06;73.56;101197.47;5039459;28;20041;-62
2023/07/17 03:39:39;;;;;;;6.40;3.63;;;;;;;17.02;74.10;101198.44;5038184;28;20047;-62
2023/07/17 03:42:10;;;;;;;6.25;3.28;;;;;;;16.98;74.29;101197.66;5035944;28;20038;-62
2023/07/17 03:44:39;;;;;;;8.68;3.13;;;;;;;16.98;74.18;101200.28;5038586;28;20147;-62
2023/07/17 03:47:05;;;;;;;4.78;3.30;;;;;;;16.98;73.95;101200.28;5039447;28;20078;-62
2023/07/17 03:49:31;;;;;;;6.32;3.20;;;;;;;16.98;73.78;101204.66;5039410;28;20029;-62
2023/07/17 03:51:58;;;;;;;5.97;2.63;;;;;;;16.97;74.19;101198.59;5033359;28;20043;-62
2023/07/17 03:54:23;;;;;;;4.45;2.80;;;;;;;16.96;73.95;101199.47;5040836;28;20044;-62
2023/07/17 03:56:49;;;;;;;5.38;3.15;;;;;;;16.96;73.90;101203.84;5040724;28;20037;-62
2023/07/17 03:59:14;;;;;;;6.60;2.80;;;;;;;16.98;73.66;101205.50;5038144;28;20824;-62
2023/07/17 04:01:39;;;;;;;5.53;3.28;;;;;;;17.02;73.37;101201.91;5033038;28;20743;-62
2023/07/17 04:04:05;;;;;;;7.72;3.47;;;;;;;17.09;73.00;101202.59;5036732;28;20159;-62
2023/07/17 04:06:30;;;;;;;8.20;3.83;;;;;;;17.21;72.86;101199.66;5040103;28;20094;-62
2023/07/17 04:08:55;;;;;;;7.07;3.35;;;;;;;17.38;71.47;101198.25;5036762;28;20046;-62
2023/07/17 04:11:21;;;;;;;5.43;3.95;;;;;;;17.54;71.12;101195.19;5031494;28;20029;-62
2023/07/17 04:13:47;;;;;;;5.32;3.42;;;;;;;17.64;70.43;101191.38;5031827;28;20036;-62
2023/07/17 04:16:13;;;;;;;5.18;3.22;;;;;;;17.71;69.87;101188.53;5035307;28;20037;-62
2023/07/17 04:18:38;;;;;;;7.88;3.30;;;;;;;17.76;69.35;101188.38;5033436;28;20073;-62
2023/07/17 04:21:03;;;;;;;8.40;3.90;;;;;;;17.77;69.23;101190.97;5030396;28;20041;-61
2023/07/17 04:23:29;;;;;;;4.93;3.15;;;;;;;17.77;68.75;101187.50;5032745;28;20053;-61
2023/07/17 04:25:54;;;;;;;8.60;3.72;;;;;;;17.74;68.62;101185.84;5033840;28;20858;-61
2023/07/17 04:28:19;;;;;;;7.88;3.35;;;;;;;17.68;68.69;101201.72;5030419;28;20037;-61
2023/07/17 04:30:45;;;;;;;7.30;3.40;;;;;;;17.65;68.69;101203.56;5021335;28;20052;-62
2023/07/17 04:33:10;;;;;;;7.40;3.30;;;;;;;17.62;68.90;101211.50;5035635;28;20098;-62
2023/07/17 04:35:39;;;;;;;6.88;3.05;;;;;;;17.60;68.76;101211.53;5042577;28;20046;-62
2023/07/17 04:38:05;;;;;;;6.90;3.35;;;;;;;17.63;68.56;101211.44;5041564;28;20032;-62
2023/07/17 04:40:31;;;;;;;6.57;3.17;;;;;;;17.71;68.20;101219.94;5036613;28;20088;-62
2023/07/17 04:43:01;;;;;;;8.07;3.72;;;;;;;17.82;67.95;101209.97;5039542;28;20041;-62
2023/07/17 04:45:27;;;;;;;6.82;3.10;;;;;;;17.95;67.28;101211.34;5044266;28;20095;-62
2023/07/17 04:47:53;;;;;;;4.10;2.85;;;;;;;18.10;66.63;101207.41;5038801;28;20465;-62
2023/07/17 04:50:18;;;;;;;7.13;3.45;;;;;;;18.27;66.26;101206.84;5034636;28;20036;-62
2023/07/17 04:52:44;;;;;;;6.50;3.45;;;;;;;18.43;65.50;101197.56;5034873;28;20091;-61
2023/07/17 04:55:09;;;;;;;5.80;3.20;;;;;;;18.56;65.21;101196.22;5035168;28;20037;-62
2023/07/17 04:57:34;;;;;;;7.05;3.00;;;;;;;18.65;64.74;101200.31;5044412;28;20136;-62
2023/07/17 05:00:00;;;;;;;5.82;3.60;;;;;;;18.73;64.13;101198.28;5030069;28;20044;-62
2023/07/17 05:02:25;;;;;;;6.07;3.45;;;;;;;18.71;64.10;101202.72;5040782;28;20043;-62
2023/07/17 05:04:51;;;;;;;7.82;2.70;;;;;;;18.70;63.88;101201.84;5040022;28;20713;-62
2023/07/17 05:07:16;;;;;;;5.53;2.65;;;;;;;18.67;63.24;101191.47;5052543;28;20025;-61
2023/07/17 05:09:41;;;;;;;6.18;2.95;;;;;;;18.66;63.34;101191.53;5038688;28;20498;-61
2023/07/17 05:12:07;;;;;;;6.03;2.53;;;;;;;18.65;63.63;101202.91;5043128;28;20525;-62
2023/07/17 05:14:32;;;;;;;6.25;3.22;;;;;;;18.64;63.70;101201.22;5038705;28;20060;-61
2023/07/17 05:16:58;;;;;;;4.40;2.53;;;;;;;18.65;63.55;101208.16;5039806;28;20087;-62
2023/07/17 05:19:23;;;;;;;5.53;2.58;;;;;;;18.65;63.60;101213.38;5042438;28;20431;-61
2023/07/17 05:21:48;;;;;;;5.97;3.08;;;;;;;18.67;63.39;101215.03;5041943;28;20671;-62
2023/07/17 05:24:14;;;;;;;4.35;2.40;;;;;;;18.72;63.29;101212.28;5037028;28;20029;-62
2023/07/17 05:26:39;;;;;;;5.70;2.65;;;;;;;18.81;63.09;101220.69;5038124;28;20033;-62
2023/07/17 05:29:04;;;;;;;5.30;2.70;;;;;;;18.92;62.32;101204.59;5039127;28;20098;-62
2023/07/17 05:31:30;;;;;;;5.10;2.60;;;;;;;19.09;61.32;101199.59;5044286;28;20087;-61
2023/07/17 05:33:56;;;;;;;5.13;2.50;;;;;;;19.38;60.75;101194.16;5044024;28;20060;-62
2023/07/17 05:36:21;;;;;;;7.53;3.10;;;;;;;19.63;59.63;101186.19;5040235;28;20049;-62
2023/07/17 05:38:47;;;;;;;7.20;2.55;;;;;;;19.82;59.06;101175.88;5032476;28;21604;-61
2023/07/17 05:41:12;;;;;;;3.80;2.00;;;;;;;19.84;59.02;101182.75;5040886;28;20072;-61
2023/07/17 05:43:38;;;;;;;6.25;2.30;;;;;;;19.84;58.56;101195.03;5038384;28;20038;-61
2023/07/17 05:46:03;;;;;;;3.55;2.00;;;;;;;19.75;58.41;101196.22;5039342;28;20045;-61
2023/07/17 05:48:29;;;;;;;7.18;2.15;;;;;;;19.70;58.77;101207.81;5040144;28;20057;-62
2023/07/17 05:50:54;;;;;;;5.20;2.45;;;;;;;19.55;59.41;101224.97;5035683;28;20064;-61
2023/07/17 05:53:19;;;;;;;4.82;2.40;;;;;;;19.45;59.48;101226.22;5034046;28;20496;-61
2023/07/17 05:55:46;;;;;;;3.47;2.20;;;;;;;19.39;59.59;101235.19;5035280;28;20579;-61
2023/07/17 05:58:11;;;;;;;3.72;1.95;;;;;;;19.38;59.62;101230.88;5033879;28;20071;-61
2023/07/17 06:00:37;;;;;;;5.88;2.25;;;;;;;19.49;59.46;101235.69;5035395;28;20049;-61
2023/07/17 06:03:02;;;;;;;2.80;1.83;;;;;;;19.67;58.88;101223.66;5039916;28;20036;-61
2023/07/17 06:05:28;;;;;;;3.38;2.05;;;;;;;19.82;58.13;101210.84;5041118;28;20041;-61
2023/07/17 06:07:53;;;;;;;4.68;2.33;;;;;;;19.97;58.44;101210.25;5033892;28;20483;-63
2023/07/17 06:10:18;;;;;;;5.22;2.00;;;;;;;20.07;57.50;101203.69;5033128;28;20033;-64
2023/07/17 06:12:44;;;;;;;5.13;2.20;;;;;;;20.22;57.34;101206.59;5037800;28;20045;-64
2023/07/17 06:15:12;;;;;;;6.78;2.42;;;;;;;20.43;57.08;101203.94;5041136;28;20673;-63
2023/07/17 06:17:38;;;;;;;3.97;1.73;;;;;;;20.58;56.91;101205.06;5033841;28;20041;-64
2023/07/17 06:20:04;;;;;;;4.03;1.90;;;;;;;20.57;55.81;101195.50;5034330;28;20109;-63
2023/07/17 06:22:30;;;;;;;5.53;2.15;;;;;;;20.51;55.84;101219.41;5034016;28;20706;-63
2023/07/17 06:24:55;;;;;;;3.58;1.70;;;;;;;20.52;55.83;101215.81;5032250;28;20051;-63
2023/07/17 06:27:21;;;;;;;3.83;1.70;;;;;;;20.59;55.71;101215.53;5033890;28;20037;-63
2023/07/17 06:29:46;;;;;;;4.10;2.28;;;;;;;20.61;55.67;101223.31;5028883;28;20749;-63
2023/07/17 06:32:11;;;;;;;4.03;2.13;;;;;;;20.52;55.70;101221.94;5032794;28;20037;-63
2023/07/17 06:34:37;;;;;;;5.07;2.00;;;;;;;20.51;56.14;101225.47;5035232;28;20869;-63
2023/07/17 06:37:03;;;;;;;3.70;1.80;;;;;;;20.55;56.01;101234.94;5035633;28;20094;-63
2023/07/17 06:39:29;;;;;;;5.63;1.90;;;;;;;20.64;56.31;101244.22;5032205;28;20079;-63
2023/07/17 06:41:55;;;;;;;4.80;2.20;;;;;;;20.66;55.76;101230.09;5030648;28;20297;-63
2023/07/17 06:44:20;;;;;;;5.50;2.42;;;;;;;20.67;55.82;101234.44;5032763;28;20026;-62
2023/07/17 06:46:46;;;;;;;6.28;1.92;;;;;;;20.60;55.40;101240.03;5020451;28;20057;-64
2023/07/17 06:49:11;;;;;;;3.17;2.10;;;;;;;20.47;55.59;101242.31;5027512;28;20135;-63
2023/07/17 06:51:36;;;;;;;5.40;2.33;;;;;;;20.49;56.01;101248.34;5025225;28;20083;-63
2023/07/17 06:54:02;;;;;;;4.55;2.08;;;;;;;20.43;56.09;101247.72;5023025;28;20182;-63
2023/07/17 06:56:27;;;;;;;4.07;1.90;;;;;;;20.35;56.51;101253.31;5028572;28;20390;-62
2023/07/17 06:58:52;;;;;;;6.45;2.58;;;;;;;20.20;56.47;101259.16;5022800;28;20055;-62
2023/07/17 07:01:18;;;;;;;6.22;2.45;;;;;;;20.16;56.32;101260.19;5025599;28;20879;-62
2023/07/17 07:03:43;;;;;;;6.10;2.30;;;;;;;20.16;56.72;101268.06;5032801;28;20156;-63
2023/07/17 07:06:09;;;;;;;6.82;2.47;;;;;;;20.17;57.25;101281.16;5033597;28;20045;-63
2023/07/17 07:08:34;;;;;;;3.20;2.03;;;;;;;20.21;56.94;101267.91;5038627;28;20494;-63
2023/07/17 07:11:01;;;;;;;5.82;2.25;;;;;;;20.25;56.48;101270.34;5031001;28;20037;-63
2023/07/17 07:13:27;;;;;;;5.45;2.20;;;;;;;20.28;56.74;101270.22;5035568;28;20491;-63
2023/07/17 07:15:53;;;;;;;4.20;2.53;;;;;;;20.29;56.34;101258.81;5036381;28;20091;-63
2023/07/17 07:18:19;;;;;;;9.57;2.75;;;;;;;20.29;56.13;101263.19;5033463;28;20094;-63
2023/07/17 07:20:45;;;;;;;5.30;2.88;;;;;;;20.29;55.57;101258.81;5034324;28;20044;-63
2023/07/17 07:23:10;;;;;;;6.50;2.53;;;;;;;20.33;54.74;101247.28;5030961;28;20021;-63
2023/07/17 07:25:36;;;;;;;7.80;2.92;;;;;;;20.35;53.52;101221.81;5035264;28;20029;-63
2023/07/17 07:28:01;;;;;;;5.32;2.60;;;;;;;20.42;53.43;101232.91;5030453;28;20029;-63
2023/07/17 07:30:27;;;;;;;5.55;2.92;;;;;;;20.49;53.21;101219.44;5031952;28;20037;-64
2023/07/17 07:32:53;;;;;;;3.67;2.40;;;;;;;20.57;52.23;101208.63;5029782;28;20065;-64
2023/07/17 07:35:18;;;;;;;5.47;2.58;;;;;;;20.69;52.55;101213.38;5032031;28;20041;-63
2023/07/17 07:37:43;;;;;;;5.30;3.00;;;;;;;20.73;51.18;101188.69;5042211;28;20021;-63
2023/07/17 07:40:11;;;;;;;4.07;2.55;;;;;;;20.83;50.94;101191.78;5033123;28;20041;-63
2023/07/17 07:42:38;;;;;;;6.32;2.72;;;;;;;20.87;50.76;101196.81;5034309;28;20040;-63
2023/07/17 07:45:05;;;;;;;5.05;2.67;;;;;;;20.96;50.81;101196.41;5026465;28;20048;-63
2023/07/17 07:47:31;;;;;;;6.05;2.92;;;;;;;20.97;50.03;101192.00;5036642;28;20047;-62
2023/07/17 07:49:56;;;;;;;7.28;3.38;;;;;;;20.94;49.63;101184.25;5038818;28;20398;-63
2023/07/17 07:52:22;;;;;;;5.10;2.78;;;;;;;21.00;49.94;101189.25;5043311;28;20705;-63
2023/07/17 07:54:47;;;;;;;5.65;2.95;;;;;;;21.03;48.92;101175.97;5032081;28;20056;-63
2023/07/17 07:57:12;;;;;;;5.38;2.90;;;;;;;21.03;49.30;101176.81;5034853;28;20045;-63
2023/07/17 07:59:38;;;;;;;4.45;3.00;;;;;;;21.17;49.47;101200.72;5030759;28;20041;-62
2023/07/17 08:02:03;;;;;;;4.68;3.05;;;;;;;21.25;49.41;101203.84;5034539;28;20032;-63
2023/07/17 08:04:29;;;;;;;5.82;3.25;;;;;;;21.33;49.21;101190.34;5035062;28;20069;-63
2023/07/17 08:06:56;;;;;;;5.80;2.90;;;;;;;21.45;48.75;101199.44;5030635;28;20040;-61
2023/07/17 08:09:21;;;;;;;4.90;2.95;;;;;;;21.50;47.96;101186.94;5030970;28;20037;-61
2023/07/17 08:11:46;;;;;;;6.57;2.92;;;;;;;21.56;48.11;101200.69;5034984;28;20105;-60
2023/07/17 08:14:12;;;;;;;6.43;3.00;;;;;;;21.63;47.86;101188.09;5035974;28;20033;-60
2023/07/17 08:16:37;;;;;;;6.47;2.90;;;;;;;21.73;47.69;101186.72;5036680;28;20655;-60
2023/07/17 08:19:03;;;;;;;6.55;3.08;;;;;;;21.79;47.84;101189.06;5030707;28;20041;-61
2023/07/17 08:21:28;;;;;;;5.72;2.70;;;;;;;21.82;47.60;101194.19;5034339;28;20059;-61
2023/07/17 08:23:54;;;;;;;6.22;3.03;;;;;;;21.90;47.75;101189.44;5025958;28;20647;-61
2023/07/17 08:26:19;;;;;;;6.35;3.00;;;;;;;22.03;47.94;101195.78;5031530;28;20025;-61
2023/07/17 08:28:44;;;;;;;6.97;3.50;;;;;;;21.99;46.29;101159.16;5035830;28;20091;-61
2023/07/17 08:31:10;;;;;;;9.07;3.83;;;;;;;22.11;46.80;101169.09;5030684;28;20110;-61
2023/07/17 08:33:36;;;;;;;4.95;2.70;;;;;;;22.19;46.46;101159.88;5038498;28;20041;-61
2023/07/17 08:36:02;;;;;;;7.00;2.70;;;;;;;22.27;46.35;101160.34;5033338;28;20107;-61
2023/07/17 08:38:27;;;;;;;6.43;3.00;;;;;;;22.36;46.13;101154.63;5034445;28;20448;-61
2023/07/17 08:40:53;;;;;;;6.07;3.47;;;;;;;22.56;45.24;101152.78;5035687;28;20121;-61
2023/07/17 08:43:20;;;;;;;6.50;3.40;;;;;;;22.64;44.58;101142.69;5033822;28;20043;-61
2023/07/17 08:45:46;;;;;;;4.60;3.08;;;;;;;22.58;44.70;101143.00;5037997;28;20114;-61
2023/07/17 08:48:14;;;;;;;4.38;2.97;;;;;;;22.56;44.25;101140.44;5037443;28;20037;-61
2023/07/17 08:50:40;;;;;;;6.18;3.30;;;;;;;22.61;44.47;101148.97;5038323;28;20033;-61
2023/07/17 08:53:08;;;;;;;4.45;2.58;;;;;;;22.78;44.23;101142.81;5034674;28;20525;-61
2023/07/17 08:55:33;;;;;;;6.65;3.22;;;;;;;22.98;43.76;101134.69;5040996;28;20040;-61
2023/07/17 08:58:03;;;;;;;8.05;3.33;;;;;;;22.90;43.44;101142.16;5036695;28;20087;-62
2023/07/17 09:00:29;;;;;;;6.43;3.33;;;;;;;22.92;43.17;101136.84;5033609;28;20156;-62
2023/07/17 09:02:55;;;;;;;9.35;3.25;;;;;;;23.01;42.79;101133.66;5049764;28;20543;-61
2023/07/17 09:05:20;;;;;;;7.07;3.28;;;;;;;23.31;42.22;101118.84;5023090;28;20039;-61
2023/07/17 09:07:47;;;;;;;6.40;3.03;;;;;;;23.57;41.22;101098.94;5034568;28;20033;-61
2023/07/17 09:10:15;;;;;;;7.50;3.38;;;;;;;23.79;41.08;101104.69;5034728;28;20556;-61
2023/07/17 09:12:41;;;;;;;5.72;3.33;;;;;;;24.08;40.78;101122.34;5037390;28;20059;-62
2023/07/17 09:15:07;;;;;;;6.40;3.53;;;;;;;24.00;40.58;101114.03;5039909;28;20037;-61
2023/07/17 09:17:33;;;;;;;4.88;3.35;;;;;;;24.15;40.48;101113.13;5029009;28;21680;-61
2023/07/17 09:20:10;;;;;;;5.70;2.80;;;;;;;24.12;40.27;101117.75;5034603;28;20102;-62
2023/07/17 09:22:37;;;;;;;7.30;3.75;;;;;;;24.25;39.60;101113.44;5034035;28;20052;-62
2023/07/17 09:25:03;;;;;;;6.15;3.42;;;;;;;24.61;39.48;101105.94;5034177;28;20071;-61
2023/07/17 09:27:29;;;;;;;4.43;2.97;;;;;;;24.75;38.92;101103.34;5034338;28;20037;-61
2023/07/17 09:29:54;;;;;;;5.72;2.90;;;;;;;24.38;38.69;101099.41;5042244;28;20041;-61
2023/07/17 09:32:21;;;;;;;6.20;3.10;;;;;;;24.28;38.84;101110.63;5036004;28;20087;-61
2023/07/17 09:35:06;;;;;;;5.55;3.17;;;;;;;24.09;39.47;101129.34;5041200;28;20095;-61
2023/07/17 09:37:32;;;;;;;6.38;3.47;;;;;;;23.92;39.56;101119.75;5034256;28;20123;-61
2023/07/17 09:40:12;;;;;;;6.68;3.33;;;;;;;23.95;39.98;101127.53;5034295;28;20151;-61
2023/07/17 09:42:40;;;;;;;5.57;2.97;;;;;;;23.86;40.62;101133.28;5040500;28;20529;-61
2023/07/17 09:45:06;;;;;;;6.10;3.03;;;;;;;24.16;40.45;101140.41;5040366;28;20049;-61
2023/07/17 09:47:31;;;;;;;4.35;3.03;;;;;;;24.25;39.64;101124.03;5034861;28;20168;-61
2023/07/17 09:50:01;;;;;;;5.97;2.70;;;;;;;24.41;39.18;101114.22;5033880;28;20033;-61
2023/07/17 09:52:30;;;;;;;9.10;3.63;;;;;;;24.55;39.26;101119.53;5034516;28;20086;-61
2023/07/17 09:55:00;;;;;;;4.50;3.03;;;;;;;24.69;38.01;101105.50;5037291;28;20098;-61
2023/07/17 09:57:31;;;;;;;5.85;3.33;;;;;;;24.77;39.10;101109.38;5038614;28;20174;-61
2023/07/17 10:00:00;;;;;;;6.93;2.85;;;;;;;24.77;38.51;101119.09;5032797;28;20171;-61
2023/07/17 10:02:39;;;;;;;6.90;3.22;;;;;;;24.55;38.46;101109.81;5033584;28;20048;-61
2023/07/17 10:05:06;;;;;;;7.00;3.60;;;;;;;24.32;38.77;101123.56;5032528;28;20029;-60
2023/07/17 10:07:35;;;;;;;6.85;3.78;;;;;;;24.13;38.95;101114.19;5038965;28;20028;-62
2023/07/17 10:10:03;;;;;;;7.95;3.80;;;;;;;24.28;39.06;101131.75;5035117;28;20052;-61
2023/07/17 10:12:29;;;;;;;5.93;3.25;;;;;;;24.41;39.11;101123.00;5032682;28;20072;-61
2023/07/17 10:14:56;;;;;;;5.43;3.58;;;;;;;24.31;39.49;101124.47;5036005;28;20045;-61
2023/07/17 10:17:33;;;;;;;4.80;3.17;;;;;;;24.24;39.16;101117.03;5037210;28;20071;-61
2023/07/17 10:20:17;;;;;;;6.32;3.13;;;;;;;24.52;39.11;101122.38;5033369;28;20044;-62
2023/07/17 10:22:44;;;;;;;8.07;3.40;;;;;;;24.84;38.59;101109.84;5035996;28;20041;-63
2023/07/17 10:25:22;;;;;;;6.47;3.08;;;;;;;24.94;37.72;101101.25;5037812;28;20033;-62
2023/07/17 10:27:53;;;;;;;6.07;2.72;;;;;;;25.47;37.46;101091.75;5034468;28;20045;-62
2023/07/17 10:30:28;;;;;;;3.75;2.65;;;;;;;25.88;36.67;101081.91;5040368;28;20282;-62
2023/07/17 10:33:09;;;;;;;4.93;2.80;;;;;;;26.18;35.10;101055.19;5034412;28;20045;-62
2023/07/17 10:35:45;;;;;;;4.78;2.83;;;;;;;26.29;35.03;101062.38;5034040;28;20083;-63
2023/07/17 10:38:11;;;;;;;4.88;3.13;;;;;;;25.95;35.04;101063.78;5027816;28;20127;-63
2023/07/17 10:40:36;;;;;;;3.92;2.60;;;;;;;25.54;35.62;101090.38;5029493;28;20130;-62
2023/07/17 10:43:13;;;;;;;6.35;2.67;;;;;;;25.18;36.05;101093.56;5033225;28;20045;-63
2023/07/17 10:45:38;;;;;;;4.85;2.58;;;;;;;25.19;36.77;101112.94;5034888;28;20148;-62
2023/07/17 10:48:06;;;;;;;3.50;2.45;;;;;;;25.25;36.34;101100.16;5036748;28;20989;-62
2023/07/17 10:50:32;;;;;;;4.82;2.67;;;;;;;25.43;35.93;101096.38;5040644;28;20036;-62
2023/07/17 10:53:09;;;;;;;6.32;2.58;;;;;;;25.53;36.18;101101.94;5033916;28;20270;-63
2023/07/17 10:55:34;;;;;;;7.90;2.85;;;;;;;26.16;35.50;101088.88;5025821;28;20420;-60
2023/07/17 10:58:01;;;;;;;3.70;1.90;;;;;;;26.35;35.15;101078.72;5034526;28;20051;-59
2023/07/17 11:00:27;;;;;;;6.80;2.60;;;;;;;25.92;35.15;101086.03;5032606;28;20037;-59
2023/07/17 11:02:55;;;;;;;5.28;3.20;;;;;;;26.14;35.80;101093.44;5028740;28;21650;-63
2023/07/17 11:05:20;;;;;;;5.00;3.03;;;;;;;26.56;35.74;101089.66;5030677;28;20036;-63
2023/07/17 11:07:45;;;;;;;6.68;3.17;;;;;;;26.69;35.00;101083.38;5032924;28;20029;-62
2023/07/17 11:10:11;;;;;;;7.05;2.90;;;;;;;26.51;35.07;101095.25;5035296;28;20546;-63
2023/07/17 11:12:38;;;;;;;8.10;3.70;;;;;;;26.60;35.02;101088.47;5029741;28;20033;-61
2023/07/17 11:15:05;;;;;;;6.45;3.35;;;;;;;26.68;34.96;101083.50;5032657;28;20144;-62
2023/07/17 11:17:30;;;;;;;5.60;2.90;;;;;;;26.17;35.01;101103.81;5036197;28;20048;-63
2023/07/17 11:20:03;;;;;;;8.30;3.20;;;;;;;25.72;36.11;101117.44;5038299;28;20054;-63